Terminal Aerodrome Forecast
Issued by NWS Sterling, VA

Current Version | Previous Version | Text Only | Print | Product List | Glossary Off
Versions: 1 2 3 4 5 6 7 8 9 10 11 12 13 14 15 16 17 18 19 20 21 22 23 24 25 26 27

000
FTUS41 KLWX 041137
TAFDCA
TAF
KDCA 041137Z 0412/0512 36008KT P6SM -SHRA OVC015
     FM041600 05005KT P6SM SHRA VCTS OVC025CB
     FM042200 09005KT P6SM BKN050
     FM050400 03004KT P6SM BKN200=

USA.gov is the U.S. government's official web portal to all federal, state and local government web resources and services.